Time;durP1;ratioP1;P1;durP2;ratioP2;P2;SDS_P1;SDS_P2;PMS_P1;PMS_P2;Temp;Humidity;BMP_temperature;BMP_pressure;BME280_temperature;BME280_humidity;BME280_pressure;Samples;Min_cycle;Max_cycle;Signal;HPM_P1;HPM_P2
2022/04/30 00:01:50;;;;;;;18.10;8.57;;;;;;;-145.18;100.00;60484.78;5026103;28;20023;-68
2022/04/30 00:04:15;;;;;;;18.57;9.13;;;;;;;-145.18;100.00;60484.78;5027947;28;20029;-68
2022/04/30 00:06:42;;;;;;;17.77;8.27;;;;;;;-145.18;100.00;60484.78;5030274;28;20017;-68
2022/04/30 00:09:07;;;;;;;17.93;9.63;;;;;;;-145.18;100.00;60484.78;5030209;28;20394;-68
2022/04/30 00:11:32;;;;;;;17.80;9.43;;;;;;;-145.18;100.00;60484.78;5030708;28;20026;-68
2022/04/30 00:13:58;;;;;;;19.27;9.20;;;;;;;-145.18;100.00;60484.78;5030706;28;20501;-68
2022/04/30 00:16:24;;;;;;;21.10;9.43;;;;;;;-145.18;100.00;60484.78;5024465;28;20028;-68
2022/04/30 00:18:49;;;;;;;22.53;10.13;;;;;;;-145.18;100.00;60484.78;5015040;28;20026;-68
2022/04/30 00:21:15;;;;;;;19.80;10.00;;;;;;;-145.18;100.00;60484.78;5025887;28;20539;-68
2022/04/30 00:23:40;;;;;;;21.03;9.97;;;;;;;-145.18;100.00;60484.78;5030536;28;20034;-68
2022/04/30 00:26:06;;;;;;;22.17;10.87;;;;;;;-145.18;100.00;60484.78;5027444;28;20048;-68
2022/04/30 00:28:31;;;;;;;20.50;10.57;;;;;;;-145.18;100.00;60484.78;5029458;28;20079;-68
2022/04/30 00:30:56;;;;;;;19.93;10.93;;;;;;;-145.18;100.00;60484.78;5029579;28;20030;-68
2022/04/30 00:33:23;;;;;;;20.97;10.73;;;;;;;-145.18;100.00;60484.78;5028417;28;20057;-68
2022/04/30 00:35:48;;;;;;;26.03;10.87;;;;;;;-145.18;100.00;60484.78;5019217;28;20026;-69
2022/04/30 00:38:15;;;;;;;21.93;11.47;;;;;;;-145.18;100.00;60484.78;5008736;28;20031;-69
2022/04/30 00:40:42;;;;;;;21.90;10.93;;;;;;;-145.18;100.00;60484.78;5026698;28;20025;-68
2022/04/30 00:43:08;;;;;;;20.37;10.60;;;;;;;-145.18;100.00;60484.78;5012410;28;20025;-68
2022/04/30 00:45:33;;;;;;;23.73;11.67;;;;;;;-145.18;100.00;60484.78;5027764;28;20044;-68
2022/04/30 00:47:59;;;;;;;30.73;12.03;;;;;;;-145.18;100.00;60484.78;5028524;28;20454;-68
2022/04/30 00:50:28;;;;;;;24.50;12.30;;;;;;;-145.18;100.00;60484.78;5026983;28;20043;-69
2022/04/30 00:52:56;;;;;;;27.50;12.83;;;;;;;-145.18;100.00;60484.78;5029073;28;20029;-69
2022/04/30 00:55:24;;;;;;;35.27;13.23;;;;;;;-145.18;100.00;60484.78;5019219;28;20044;-69
2022/04/30 00:57:54;;;;;;;26.43;12.73;;;;;;;-145.18;100.00;60484.78;5024274;28;20057;-69
2022/04/30 01:00:20;;;;;;;26.97;12.70;;;;;;;-145.18;100.00;60484.78;5020891;28;20529;-69
2022/04/30 01:02:45;;;;;;;28.87;13.73;;;;;;;-145.18;100.00;60484.78;5024453;28;20064;-69
2022/04/30 01:05:11;;;;;;;31.37;14.23;;;;;;;-145.18;100.00;60484.78;5021628;28;20029;-69
2022/04/30 01:07:39;;;;;;;34.90;14.43;;;;;;;-145.18;100.00;60484.78;5027515;28;20458;-68
2022/04/30 01:10:07;;;;;;;31.60;14.60;;;;;;;-145.18;100.00;60484.78;5026468;28;20033;-69
2022/04/30 01:12:34;;;;;;;29.30;15.27;;;;;;;-145.18;100.00;60484.78;5028350;28;20079;-68
2022/04/30 01:15:05;;;;;;;40.77;16.20;;;;;;;-145.18;100.00;60484.78;5027244;28;20025;-69
2022/04/30 01:17:31;;;;;;;37.73;16.23;;;;;;;-145.18;100.00;60484.78;5025541;28;20022;-69
2022/04/30 01:19:57;;;;;;;32.63;16.10;;;;;;;-145.18;100.00;60484.78;5018207;28;20334;-69
2022/04/30 01:22:40;;;;;;;39.67;15.93;;;;;;;-145.18;100.00;60484.78;5025166;28;20028;-69
2022/04/30 01:25:06;;;;;;;38.23;16.70;;;;;;;-145.18;100.00;60484.78;5005552;28;20485;-69
2022/04/30 01:27:36;;;;;;;42.37;17.07;;;;;;;-145.18;100.00;60484.78;5024945;28;20481;-69
2022/04/30 01:30:13;;;;;;;33.90;16.27;;;;;;;-145.18;100.00;60484.78;5027757;28;20033;-70
2022/04/30 01:38:08;;;;;;;45.47;17.07;;;;;;;-145.18;100.00;60484.78;5026522;28;20250;-68
2022/04/30 01:40:34;;;;;;;45.63;17.87;;;;;;;-145.18;100.00;60484.78;5025152;28;20030;-69
2022/04/30 01:43:01;;;;;;;43.70;17.47;;;;;;;-145.18;100.00;60484.78;5020312;28;20057;-69
2022/04/30 01:45:28;;;;;;;37.07;17.27;;;;;;;-145.18;100.00;60484.78;5017422;28;20034;-69
2022/04/30 01:47:54;;;;;;;46.23;18.40;;;;;;;-145.18;100.00;60484.78;5017434;28;20068;-69
2022/04/30 01:50:21;;;;;;;49.43;18.97;;;;;;;-145.18;100.00;60484.78;5022159;28;20116;-69
2022/04/30 01:52:47;;;;;;;43.47;17.57;;;;;;;-145.18;100.00;60484.78;5023639;28;20033;-70
2022/04/30 01:55:13;;;;;;;46.27;18.10;;;;;;;-145.18;100.00;60484.78;5020524;28;20033;-69
2022/04/30 01:57:39;;;;;;;47.73;19.03;;;;;;;-145.18;100.00;60484.78;5023121;28;20506;-69
2022/04/30 02:00:05;;;;;;;50.87;18.23;;;;;;;-145.18;100.00;60484.78;5020985;28;20044;-69
2022/04/30 02:02:37;;;;;;;45.03;17.57;;;;;;;-145.18;100.00;60484.78;5027997;28;20086;-69
2022/04/30 02:05:07;;;;;;;46.67;18.80;;;;;;;-145.18;100.00;60484.78;5025302;28;20032;-69
2022/04/30 02:07:39;;;;;;;44.03;18.47;;;;;;;-145.18;100.00;60484.78;5018430;28;20025;-69
2022/04/30 02:10:05;;;;;;;;;;;;;;;-145.18;100.00;60484.78;5026094;28;20033;-69
2022/04/30 02:12:32;;;;;;;41.97;16.27;;;;;;;-145.18;100.00;60484.78;5026703;28;19913;-69
2022/04/30 02:14:58;;;;;;;45.73;17.30;;;;;;;-145.18;100.00;60484.78;5022700;28;20017;-69
2022/04/30 02:17:26;;;;;;;47.47;18.37;;;;;;;-145.18;100.00;60484.78;5025599;28;20029;-69
2022/04/30 02:22:40;;;;;;;44.60;17.30;;;;;;;-145.18;100.00;60484.78;5019702;28;20036;-69
2022/04/30 02:25:09;;;;;;;47.60;17.73;;;;;;;-145.18;100.00;60484.78;5012330;28;20030;-70
2022/04/30 02:27:59;;;;;;;45.50;17.30;;;;;;;-145.18;100.00;60484.78;5024463;28;20025;-70
2022/04/30 02:30:27;;;;;;;45.83;17.63;;;;;;;-145.18;100.00;60484.78;5008778;28;20116;-70
2022/04/30 02:32:57;;;;;;;38.37;16.83;;;;;;;-145.18;100.00;60484.78;5025320;28;20044;-70
2022/04/30 02:35:26;;;;;;;41.20;17.47;;;;;;;-145.18;100.00;60484.78;5024531;28;20026;-70
2022/04/30 02:37:54;;;;;;;39.93;15.67;;;;;;;-145.18;100.00;60484.78;5027098;28;20053;-69
2022/04/30 02:40:21;;;;;;;45.37;18.73;;;;;;;-145.18;100.00;60484.78;5017862;28;20026;-69
2022/04/30 02:42:47;;;;;;;50.03;18.30;;;;;;;-145.18;100.00;60484.78;5021187;28;20029;-69
2022/04/30 02:45:14;;;;;;;43.23;18.17;;;;;;;-145.18;100.00;60484.78;5023264;28;20026;-69
2022/04/30 02:47:44;;;;;;;42.27;17.17;;;;;;;-145.18;100.00;60484.78;5023255;28;20041;-69
2022/04/30 02:50:15;;;;;;;49.80;17.97;;;;;;;-145.18;100.00;60484.78;5025634;28;20128;-69
2022/04/30 02:52:45;;;;;;;45.22;18.48;;;;;;;-145.18;100.00;60484.78;5027155;28;20120;-69
2022/04/30 02:55:11;;;;;;;41.90;17.40;;;;;;;-145.18;100.00;60484.78;5028884;28;20441;-69
2022/04/30 03:00:39;;;;;;;48.70;19.13;;;;;;;-145.18;100.00;60484.78;5026757;28;20456;-69
2022/04/30 03:03:05;;;;;;;43.00;18.27;;;;;;;-145.18;100.00;60484.78;5021744;28;20140;-69
2022/04/30 03:05:31;;;;;;;47.50;19.43;;;;;;;-145.18;100.00;60484.78;5019529;28;20092;-69
2022/04/30 03:07:57;;;;;;;52.40;19.57;;;;;;;-145.18;100.00;60484.78;5028865;28;20025;-69
2022/04/30 03:10:22;;;;;;;44.63;19.43;;;;;;;-145.18;100.00;60484.78;5029407;28;20401;-69
2022/04/30 03:12:50;;;;;;;55.53;20.30;;;;;;;-145.18;100.00;60484.78;5027637;28;20037;-69
2022/04/30 03:15:19;;;;;;;52.50;20.20;;;;;;;-145.18;100.00;60484.78;5027259;28;20516;-69
2022/04/30 03:23:13;;;;;;;62.63;23.70;;;;;;;-145.18;100.00;60484.78;5025228;28;20120;-70
2022/04/30 03:25:38;;;;;;;56.97;23.13;;;;;;;-145.18;100.00;60484.78;5029309;28;20600;-69
2022/04/30 03:28:04;;;;;;;56.63;22.83;;;;;;;-145.18;100.00;60484.78;5028318;28;20405;-69
2022/04/30 03:30:29;;;;;;;60.80;23.20;;;;;;;-145.18;100.00;60484.78;5028240;28;20036;-70
2022/04/30 03:32:55;;;;;;;63.73;23.67;;;;;;;-145.18;100.00;60484.78;5029037;28;20026;-69
2022/04/30 03:35:20;;;;;;;62.03;25.03;;;;;;;-145.18;100.00;60484.78;5024805;28;20033;-70
2022/04/30 03:37:46;;;;;;;64.60;24.67;;;;;;;-145.18;100.00;60484.78;5031830;28;20028;-69
2022/04/30 03:40:13;;;;;;;65.03;24.57;;;;;;;-145.18;100.00;60484.78;5022939;28;20151;-69
2022/04/30 03:42:39;;;;;;;61.20;24.70;;;;;;;-145.18;100.00;60484.78;5030816;28;20033;-69
2022/04/30 03:45:05;;;;;;;63.93;23.83;;;;;;;-145.18;100.00;60484.78;5028397;28;20040;-69
2022/04/30 03:47:30;;;;;;;57.47;23.83;;;;;;;-145.18;100.00;60484.78;5028725;28;20589;-69
2022/04/30 03:49:55;;;;;;;62.20;23.93;;;;;;;-145.18;100.00;60484.78;5027584;28;20037;-70
2022/04/30 03:52:21;;;;;;;53.57;22.90;;;;;;;-145.18;100.00;60484.78;5025334;28;20045;-70
2022/04/30 03:54:47;;;;;;;64.27;24.20;;;;;;;-145.18;100.00;60484.78;5028545;28;20033;-70
2022/04/30 03:57:12;;;;;;;57.37;23.77;;;;;;;-145.18;100.00;60484.78;5029517;28;20037;-70
2022/04/30 03:59:37;;;;;;;62.57;23.77;;;;;;;-145.18;100.00;60484.78;5027500;28;20400;-70
2022/04/30 04:02:03;;;;;;;65.73;24.90;;;;;;;-145.18;100.00;60484.78;5029741;28;20535;-70
2022/04/30 04:04:29;;;;;;;72.00;25.83;;;;;;;-145.18;100.00;60484.78;5024425;28;20791;-69
2022/04/30 04:06:56;;;;;;;64.80;25.63;;;;;;;-145.18;100.00;60484.78;5031187;28;20771;-69
2022/04/30 04:09:22;;;;;;;72.13;26.23;;;;;;;-145.18;100.00;60484.78;5024575;28;20030;-69
2022/04/30 04:11:48;;;;;;;65.90;25.97;;;;;;;-145.18;100.00;60484.78;5021591;28;20040;-69
2022/04/30 04:19:41;;;;;;;51.77;22.07;;;;;;;-145.18;100.00;60484.78;5018476;28;20065;-69
2022/04/30 04:22:07;;;;;;;37.77;18.70;;;;;;;-145.18;100.00;60484.78;5025415;28;20518;-69
2022/04/30 04:27:18;;;;;;;37.23;17.93;;;;;;;-145.18;100.00;60484.78;5027960;28;20033;-70
2022/04/30 04:29:44;;;;;;;36.43;17.70;;;;;;;-145.18;100.00;60484.78;5026567;28;20029;-70
2022/04/30 04:32:09;;;;;;;36.80;17.50;;;;;;;-145.18;100.00;60484.78;5030161;28;20387;-69
2022/04/30 04:34:35;;;;;;;37.93;16.67;;;;;;;-145.18;100.00;60484.78;5025421;28;20100;-70
2022/04/30 04:37:00;;;;;;;35.23;15.70;;;;;;;-145.18;100.00;60484.78;5028634;28;20280;-70
2022/04/30 04:39:26;;;;;;;32.97;15.90;;;;;;;-145.18;100.00;60484.78;5028110;28;20434;-69
2022/04/30 04:41:51;;;;;;;33.53;15.40;;;;;;;-145.18;100.00;60484.78;5025750;28;20374;-69
2022/04/30 04:44:16;;;;;;;29.63;13.80;;;;;;;-145.18;100.00;60484.78;5028757;28;20056;-69
2022/04/30 04:46:42;;;;;;;24.87;12.97;;;;;;;-145.18;100.00;60484.78;5030349;28;20017;-69
2022/04/30 04:49:10;;;;;;;27.17;12.33;;;;;;;-145.18;100.00;60484.78;5031495;28;20026;-69
2022/04/30 04:51:36;;;;;;;24.53;11.13;;;;;;;-145.18;100.00;60484.78;5031351;28;20365;-69
2022/04/30 04:54:02;;;;;;;21.97;11.17;;;;;;;-145.18;100.00;60484.78;5026793;28;20036;-69
2022/04/30 04:56:28;;;;;;;20.03;10.60;;;;;;;-145.18;100.00;60484.78;5025328;28;20091;-69
2022/04/30 04:58:53;;;;;;;24.57;10.67;;;;;;;-145.18;100.00;60484.78;5026487;28;20029;-68
2022/04/30 05:01:19;;;;;;;22.47;9.97;;;;;;;-145.18;100.00;60484.78;5025424;28;20119;-69
2022/04/30 05:03:44;;;;;;;22.60;10.83;;;;;;;-145.18;100.00;60484.78;5021928;28;20075;-69
2022/04/30 05:06:10;;;;;;;18.60;9.20;;;;;;;-145.18;100.00;60484.78;5021641;28;20036;-68
2022/04/30 05:08:36;;;;;;;18.43;9.10;;;;;;;-145.18;100.00;60484.78;5026522;28;20029;-68
2022/04/30 05:11:01;;;;;;;24.77;9.50;;;;;;;-145.18;100.00;60484.78;5025655;28;20037;-68
2022/04/30 05:13:26;;;;;;;32.83;10.13;;;;;;;-145.18;100.00;60484.78;5027764;28;20036;-68
2022/04/30 05:15:52;;;;;;;18.70;9.13;;;;;;;-145.18;100.00;60484.78;5020880;28;20037;-68
2022/04/30 05:18:17;;;;;;;18.80;8.77;;;;;;;-145.18;100.00;60484.78;5024468;28;20466;-68
2022/04/30 05:20:43;;;;;;;18.67;8.40;;;;;;;-145.18;100.00;60484.78;5024088;28;20056;-68
2022/04/30 05:23:09;;;;;;;19.87;9.23;;;;;;;-145.18;100.00;60484.78;5023278;28;20029;-68
2022/04/30 05:25:35;;;;;;;19.50;8.57;;;;;;;-145.18;100.00;60484.78;5025122;28;20072;-68
2022/04/30 05:28:00;;;;;;;17.90;8.10;;;;;;;-145.18;100.00;60484.78;5023953;28;20116;-68
2022/04/30 05:30:26;;;;;;;17.23;8.00;;;;;;;-145.18;100.00;60484.78;5022473;28;20112;-68
2022/04/30 05:32:51;;;;;;;15.80;7.87;;;;;;;-145.18;100.00;60484.78;5024297;28;20466;-66
2022/04/30 05:35:17;;;;;;;13.33;7.47;;;;;;;-145.18;100.00;60484.78;5022406;28;20053;-66
2022/04/30 05:37:43;;;;;;;15.90;7.70;;;;;;;-145.18;100.00;60484.78;5024131;28;20125;-66
2022/04/30 05:40:08;;;;;;;15.90;8.07;;;;;;;-145.18;100.00;60484.78;5021696;28;20481;-66
2022/04/30 05:42:34;;;;;;;14.50;7.70;;;;;;;-145.18;100.00;60484.78;5025606;28;20088;-66
2022/04/30 05:44:59;;;;;;;13.77;7.90;;;;;;;-145.18;100.00;60484.78;5023568;28;20017;-66
2022/04/30 05:47:25;;;;;;;15.87;7.90;;;;;;;-145.18;100.00;60484.78;5030645;28;20021;-66
2022/04/30 05:49:51;;;;;;;12.73;7.73;;;;;;;-145.18;100.00;60484.78;5026898;28;20060;-66
2022/04/30 05:52:19;;;;;;;15.50;6.90;;;;;;;-145.18;100.00;60484.78;5024844;28;20037;-66
2022/04/30 05:54:44;;;;;;;14.07;7.30;;;;;;;-145.18;100.00;60484.78;5021603;28;20061;-66
2022/04/30 05:57:09;;;;;;;15.37;6.77;;;;;;;-145.18;100.00;60484.78;5024834;28;20069;-66
2022/04/30 05:59:35;;;;;;;13.67;6.80;;;;;;;-145.18;100.00;60484.78;5020226;28;20021;-66
2022/04/30 06:02:00;;;;;;;14.67;6.43;;;;;;;-145.18;100.00;60484.78;5022343;28;20281;-66
2022/04/30 06:04:25;;;;;;;12.67;6.67;;;;;;;-145.18;100.00;60484.78;5021055;28;21627;-66
2022/04/30 06:06:51;;;;;;;12.13;6.03;;;;;;;-145.18;100.00;60484.78;5023069;28;20088;-68
2022/04/30 06:09:16;;;;;;;13.40;6.32;;;;;;;-145.18;100.00;60484.78;5022123;28;20474;-68
2022/04/30 06:11:42;;;;;;;12.48;6.13;;;;;;;-145.18;100.00;60484.78;5026921;28;20500;-68
2022/04/30 06:14:07;;;;;;;12.20;6.20;;;;;;;-145.18;100.00;60484.78;5005213;28;20025;-68
2022/04/30 06:16:33;;;;;;;11.95;5.88;;;;;;;-145.18;100.00;60484.78;5018963;28;20033;-68
2022/04/30 06:18:58;;;;;;;12.30;6.57;;;;;;;-145.18;100.00;60484.78;5022724;28;20033;-68
2022/04/30 06:21:23;;;;;;;14.70;6.43;;;;;;;-145.18;100.00;60484.78;5023678;28;20103;-68
2022/04/30 06:23:52;;;;;;;15.18;6.13;;;;;;;-145.18;100.00;60484.78;5022788;28;20029;-68
2022/04/30 06:26:18;;;;;;;10.40;5.70;;;;;;;-145.18;100.00;60484.78;5027029;28;20048;-68
2022/04/30 06:28:43;;;;;;;11.70;6.18;;;;;;;-145.18;100.00;60484.78;5029536;28;20044;-68
2022/04/30 06:31:08;;;;;;;11.23;6.00;;;;;;;-145.18;100.00;60484.78;5032946;28;20131;-68
2022/04/30 06:33:34;;;;;;;9.68;5.30;;;;;;;-145.18;100.00;60484.78;5035410;28;20477;-68
2022/04/30 06:35:59;;;;;;;11.23;5.68;;;;;;;-145.18;100.00;60484.78;5026915;28;20088;-66
2022/04/30 06:38:25;;;;;;;9.38;5.75;;;;;;;-145.18;100.00;60484.78;5036261;28;20032;-67
2022/04/30 06:40:51;;;;;;;10.43;5.20;;;;;;;-145.18;100.00;60484.78;5031277;28;20033;-67
2022/04/30 06:43:16;;;;;;;9.40;5.80;;;;;;;-145.18;100.00;60484.78;5031730;28;20060;-67
2022/04/30 06:45:41;;;;;;;10.57;5.32;;;;;;;-145.18;100.00;60484.78;5024712;28;20029;-67
2022/04/30 06:48:07;;;;;;;11.10;5.32;;;;;;;-145.18;100.00;60484.78;5033181;28;20037;-67
2022/04/30 06:50:32;;;;;;;10.88;5.55;;;;;;;-145.18;100.00;60484.78;5029813;28;20540;-67
2022/04/30 06:58:26;;;;;;;13.25;7.00;;;;;;;-145.18;100.00;60484.78;5025682;28;20516;-67
2022/04/30 07:03:24;;;;;;;15.30;6.43;;;;;;;-145.18;100.00;60484.78;5029114;28;20163;-67
2022/04/30 07:05:51;;;;;;;10.32;5.90;;;;;;;-145.18;100.00;60484.78;5029256;28;20048;-67
2022/04/30 07:08:16;;;;;;;12.63;6.13;;;;;;;-145.18;100.00;60484.78;5028635;28;20061;-68
2022/04/30 07:10:42;;;;;;;10.87;6.20;;;;;;;-145.18;100.00;60484.78;5026627;28;20080;-68
2022/04/30 07:13:07;;;;;;;13.50;6.77;;;;;;;-145.18;100.00;60484.78;5018254;28;20555;-68
2022/04/30 07:15:32;;;;;;;12.80;7.37;;;;;;;-145.18;100.00;60484.78;5024511;28;20678;-67
2022/04/30 07:17:58;;;;;;;18.80;7.10;;;;;;;-145.18;100.00;60484.78;5003883;28;20025;-67
2022/04/30 07:20:23;;;;;;;12.67;6.43;;;;;;;-145.18;100.00;60484.78;5027148;28;20025;-67
2022/04/30 07:22:48;;;;;;;13.93;6.80;;;;;;;-145.18;100.00;60484.78;5029881;28;20043;-67
2022/04/30 07:25:14;;;;;;;15.30;6.70;;;;;;;-145.18;100.00;60484.78;5021527;28;20116;-67
2022/04/30 07:27:39;;;;;;;11.10;5.90;;;;;;;-145.18;100.00;60484.78;5029351;28;20040;-67
2022/04/30 07:30:06;;;;;;;11.53;5.53;;;;;;;-145.18;100.00;60484.78;5029620;28;20025;-67
2022/04/30 07:32:31;;;;;;;12.57;6.03;;;;;;;-145.18;100.00;60484.78;5031509;28;20104;-67
2022/04/30 07:34:57;;;;;;;13.25;5.80;;;;;;;-145.18;100.00;60484.78;5023228;28;20109;-67
2022/04/30 07:37:22;;;;;;;11.18;5.10;;;;;;;-145.18;100.00;60484.78;5028807;28;20017;-67
2022/04/30 07:39:47;;;;;;;10.18;5.50;;;;;;;-145.18;100.00;60484.78;5025722;28;20053;-67
2022/04/30 07:42:13;;;;;;;11.38;5.32;;;;;;;-145.18;100.00;60484.78;5025878;28;20083;-67
2022/04/30 07:44:39;;;;;;;11.07;5.37;;;;;;;-145.18;100.00;60484.78;5027692;28;20026;-68
2022/04/30 07:47:05;;;;;;;11.45;5.72;;;;;;;-145.18;100.00;60484.78;5033379;28;20022;-68
2022/04/30 07:49:31;;;;;;;13.02;5.10;;;;;;;-145.18;100.00;60484.78;5028591;28;20502;-68
2022/04/30 07:51:56;;;;;;;8.55;4.57;;;;;;;-145.18;100.00;60484.78;5013887;28;20026;-68
2022/04/30 07:54:22;;;;;;;8.85;4.00;;;;;;;-145.18;100.00;60484.78;5016336;28;20017;-68
2022/04/30 07:56:55;;;;;;;12.30;4.93;;;;;;;-145.18;100.00;60484.78;5033152;28;20034;-68
2022/04/30 07:59:22;;;;;;;8.82;4.22;;;;;;;-145.18;100.00;60484.78;5032970;28;20025;-68
2022/04/30 08:01:51;;;;;;;11.90;3.80;;;;;;;-145.18;100.00;60484.78;5033361;28;20385;-68
2022/04/30 08:04:17;;;;;;;9.13;3.83;;;;;;;-145.18;100.00;60484.78;5026347;28;20090;-68
2022/04/30 08:06:42;;;;;;;6.90;3.80;;;;;;;-145.18;100.00;60484.78;5019082;28;20021;-68
2022/04/30 08:09:08;;;;;;;9.10;3.90;;;;;;;-145.18;100.00;60484.78;5032070;28;20028;-68
2022/04/30 08:11:33;;;;;;;10.77;3.63;;;;;;;-145.18;100.00;60484.78;5030694;28;20022;-68
2022/04/30 08:13:59;;;;;;;11.85;4.07;;;;;;;-145.18;100.00;60484.78;5032275;28;20409;-68
2022/04/30 08:16:24;;;;;;;10.45;4.15;;;;;;;-145.18;100.00;60484.78;5025969;28;20033;-68
2022/04/30 08:18:50;;;;;;;9.25;4.20;;;;;;;-145.18;100.00;60484.78;5013117;28;20030;-68
2022/04/30 08:21:15;;;;;;;8.02;3.70;;;;;;;-145.18;100.00;60484.78;5021827;28;20076;-68
2022/04/30 08:23:41;;;;;;;6.47;3.17;;;;;;;-145.18;100.00;60484.78;5032585;28;20025;-68
2022/04/30 08:26:06;;;;;;;10.23;3.45;;;;;;;-145.18;100.00;60484.78;5031217;28;20410;-68
2022/04/30 08:28:32;;;;;;;8.27;3.22;;;;;;;-145.18;100.00;60484.78;5032574;28;20021;-68
2022/04/30 08:30:58;;;;;;;7.97;3.10;;;;;;;-145.18;100.00;60484.78;5030990;28;20486;-68
2022/04/30 08:33:24;;;;;;;6.68;2.90;;;;;;;-145.18;100.00;60484.78;5032626;28;20037;-68
2022/04/30 08:35:49;;;;;;;6.78;3.17;;;;;;;-145.18;100.00;60484.78;5022408;28;20347;-68
2022/04/30 08:38:15;;;;;;;6.95;3.40;;;;;;;-145.18;100.00;60484.78;5016009;28;20083;-68
2022/04/30 08:40:44;;;;;;;8.13;4.25;;;;;;;-145.18;100.00;60484.78;5029553;28;20041;-68
2022/04/30 08:43:14;;;;;;;9.07;3.63;;;;;;;-145.18;100.00;60484.78;5014411;28;20071;-68
2022/04/30 08:45:42;;;;;;;5.85;3.40;;;;;;;-145.18;100.00;60484.78;5029141;28;20104;-68
2022/04/30 08:48:10;;;;;;;7.65;2.75;;;;;;;-145.18;100.00;60484.78;5032644;28;20040;-68
2022/04/30 08:50:37;;;;;;;7.00;3.20;;;;;;;-145.18;100.00;60484.78;5025410;28;20052;-68
2022/04/30 08:53:03;;;;;;;9.35;3.38;;;;;;;-145.18;100.00;60484.78;5032030;28;20465;-68
2022/04/30 08:55:28;;;;;;;8.50;3.00;;;;;;;-145.18;100.00;60484.78;5025320;28;20037;-68
2022/04/30 08:57:53;;;;;;;8.00;3.30;;;;;;;-145.18;100.00;60484.78;5032359;28;20474;-68
2022/04/30 09:00:20;;;;;;;7.20;3.33;;;;;;;-145.18;100.00;60484.78;5020724;28;20030;-68
2022/04/30 09:02:59;;;;;;;7.60;3.28;;;;;;;-145.18;100.00;60484.78;5027711;28;20068;-68
2022/04/30 09:05:35;;;;;;;7.22;2.80;;;;;;;-145.18;100.00;60484.78;5026315;28;20025;-68
2022/04/30 09:08:01;;;;;;;7.03;2.90;;;;;;;-145.18;100.00;60484.78;5032017;28;20021;-68
2022/04/30 09:10:37;;;;;;;6.75;3.00;;;;;;;19.15;58.62;-19663.09;5059920;28;20400;-67
2022/04/30 09:13:13;;;;;;;5.22;2.80;;;;;;;19.33;58.93;-19667.78;5051876;28;20039;-68
2022/04/30 09:15:40;;;;;;;6.35;3.00;;;;;;;19.97;55.46;-19683.91;5051632;28;20033;-68
2022/04/30 09:18:07;;;;;;;7.70;2.70;;;;;;;19.72;59.51;-19677.53;5058867;28;20067;-68
2022/04/30 09:20:54;;;;;;;5.03;2.60;;;;;;;20.68;51.98;-19702.13;5059631;28;20059;-68
2022/04/30 09:23:35;;;;;;;7.45;2.90;;;;;;;18.58;70.21;-19648.50;5048190;28;20155;-68
2022/04/30 09:26:04;;;;;;;8.23;3.10;;;;;;;17.81;85.95;-19628.69;5049783;28;20036;-68
2022/04/30 09:28:38;;;;;;;8.32;3.05;;;;;;;16.84;95.50;-19603.91;5048078;28;20362;-68
2022/04/30 09:31:06;;;;;;;10.25;3.03;;;;;;;14.96;100.00;-19555.50;5063227;28;20087;-67
2022/04/30 09:33:32;;;;;;;8.27;3.53;;;;;;;14.33;100.00;-19539.28;5066666;28;20477;-67
2022/04/30 09:38:47;;;;;;;5.68;3.00;;;;;;;14.21;100.00;-19536.13;5068052;28;20137;-68
2022/04/30 09:41:13;;;;;;;6.70;3.10;;;;;;;17.56;100.00;-19622.44;5056891;28;20460;-67
2022/04/30 09:43:38;;;;;;;7.40;3.20;;;;;;;18.65;66.15;-19650.19;5047474;28;20075;-68
2022/04/30 09:46:06;;;;;;;9.10;2.72;;;;;;;19.89;66.01;-19681.97;5063043;28;20116;-68
2022/04/30 09:54:03;;;;;;;4.47;2.33;;;;;;;14.96;100.00;-19555.50;5048164;28;20055;-68
2022/04/30 09:56:37;;;;;;;6.25;2.38;;;;;;;14.40;100.00;-19540.97;5059535;28;20029;-67
2022/04/30 09:59:05;;;;;;;15.82;3.10;;;;;;;14.19;100.00;-19535.59;5047205;28;20033;-67
2022/04/30 10:01:32;;;;;;;7.32;2.63;;;;;;;14.24;100.00;-19537.03;5050851;28;20033;-68
2022/04/30 10:03:58;;;;;;;3.90;2.30;;;;;;;14.03;100.00;-19531.66;5050730;28;20049;-68
2022/04/30 10:06:25;;;;;;;7.05;2.30;;;;;;;14.48;100.00;-19543.06;5050635;28;20086;-68
2022/04/30 10:08:52;;;;;;;7.03;2.40;;;;;;;14.70;100.00;-19548.69;5046653;28;20113;-68
2022/04/30 10:11:17;;;;;;;5.43;2.45;;;;;;;14.52;100.00;-19544.13;5063639;28;20037;-68
2022/04/30 10:13:52;;;;;;;11.50;2.58;;;;;;;14.27;100.00;-19537.69;5048574;28;20143;-68
2022/04/30 10:16:24;;;;;;;8.70;2.70;;;;;;;14.38;100.00;-19540.72;5063547;28;20021;-67
2022/04/30 10:19:06;;;;;;;;;;;;;;;13.89;100.00;-19528.00;5063026;28;20068;-68
2022/04/30 10:21:31;;;;;;;6.75;2.88;;;;;;;14.55;100.00;-19544.91;5043244;28;19913;-68
2022/04/30 10:24:04;;;;;;;6.05;3.10;;;;;;;14.85;100.00;-19552.63;5042076;28;20039;-68
2022/04/30 10:26:30;;;;;;;9.77;3.15;;;;;;;15.35;100.00;-19565.44;5036771;28;20136;-68
2022/04/30 10:29:13;;;;;;;5.97;2.28;;;;;;;15.01;100.00;-19556.69;5033963;28;20025;-68
2022/04/30 10:31:43;;;;;;;6.97;2.90;;;;;;;13.65;100.00;-19521.84;5046005;28;20119;-67
2022/04/30 10:34:08;;;;;;;8.02;3.20;;;;;;;13.97;100.00;-19530.09;5045962;28;20679;-68
2022/04/30 10:36:37;;;;;;;7.07;2.90;;;;;;;14.40;100.00;-19541.09;5047455;28;20029;-67
2022/04/30 10:39:04;;;;;;;6.75;2.80;;;;;;;15.10;100.00;-19559.16;5047236;28;20354;-67
2022/04/30 10:41:41;;;;;;;6.15;2.70;;;;;;;15.18;100.00;-19561.28;5036541;28;20477;-68
2022/04/30 10:44:06;;;;;;;7.95;2.65;;;;;;;15.52;97.40;-19569.91;5048767;28;20496;-68
2022/04/30 10:46:37;;;;;;;5.45;2.60;;;;;;;14.99;93.26;-19556.16;5043417;28;20040;-67
2022/04/30 10:49:04;;;;;;;5.40;2.73;;;;;;;15.30;100.00;-19564.28;5037766;28;20021;-68
2022/04/30 10:51:41;;;;;;;8.10;2.60;;;;;;;15.75;100.00;-19575.78;5043684;28;20352;-68
2022/04/30 10:54:08;;;;;;;5.93;2.80;;;;;;;15.61;100.00;-19572.13;5034007;28;20069;-68
2022/04/30 10:56:33;;;;;;;6.55;2.53;;;;;;;16.11;86.97;-19585.06;5040850;28;20112;-68
2022/04/30 10:58:58;;;;;;;7.45;2.85;;;;;;;16.11;86.33;-19585.06;5033184;28;20056;-68
2022/04/30 11:01:24;;;;;;;8.68;3.15;;;;;;;16.48;83.86;-19594.47;5051829;28;20036;-67
2022/04/30 11:03:50;;;;;;;7.35;2.80;;;;;;;16.66;82.13;-19599.19;5053269;28;20017;-68
2022/04/30 11:06:20;;;;;;;6.20;2.63;;;;;;;16.76;78.07;-19601.69;5047817;28;20398;-68
2022/04/30 11:09:05;;;;;;;9.35;3.20;;;;;;;16.76;77.78;-19601.81;5035085;28;20125;-67
2022/04/30 11:11:32;;;;;;;4.22;2.40;;;;;;;15.75;88.53;-19575.78;5038749;28;20386;-67
2022/04/30 11:14:08;;;;;;;6.57;3.08;;;;;;;16.13;85.24;-19585.59;5032534;28;20104;-67
2022/04/30 11:16:35;;;;;;;7.05;2.33;;;;;;;16.84;78.04;-19603.75;5032122;28;20029;-67
2022/04/30 11:19:08;;;;;;;4.97;2.30;;;;;;;17.38;75.28;-19617.59;5047432;28;20538;-67
2022/04/30 11:21:35;;;;;;;6.03;2.65;;;;;;;17.34;68.86;-19616.69;5036832;28;20036;-67
2022/04/30 11:24:01;;;;;;;4.97;2.35;;;;;;;17.14;68.85;-19611.59;5031694;28;20549;-68
2022/04/30 11:26:27;;;;;;;6.82;2.78;;;;;;;16.15;79.91;-19586.13;5035207;28;20539;-68
2022/04/30 11:28:53;;;;;;;4.25;2.20;;;;;;;15.39;78.17;-19566.50;5031970;28;20025;-67
2022/04/30 11:31:19;;;;;;;7.43;2.42;;;;;;;14.17;83.93;-19535.06;5035578;28;20025;-68
2022/04/30 11:33:45;;;;;;;4.97;2.20;;;;;;;15.42;87.72;-19567.28;5045419;28;20104;-67
2022/04/30 11:36:10;;;;;;;4.50;2.08;;;;;;;16.45;80.09;-19593.81;5050261;28;20112;-67
2022/04/30 11:38:36;;;;;;;5.15;2.25;;;;;;;17.09;65.33;-19610.16;5032896;28;20071;-67
2022/04/30 11:41:10;;;;;;;4.85;2.20;;;;;;;17.76;65.17;-19627.53;5048155;28;20079;-67
2022/04/30 11:43:36;;;;;;;5.57;2.47;;;;;;;18.00;60.33;-19633.66;5041380;28;20084;-67
2022/04/30 11:46:03;;;;;;;5.90;2.88;;;;;;;18.22;60.57;-19639.13;5035315;28;20052;-67